createdAt,value
2023-04-07T00:02:20.615Z,4.56
2023-04-07T00:04:47.472Z,4.53
2023-04-07T00:07:14.065Z,4.53
2023-04-07T00:09:40.797Z,4.52
2023-04-07T00:12:07.557Z,4.53
2023-04-07T00:14:34.515Z,4.53
2023-04-07T00:17:01.263Z,4.52
2023-04-07T00:19:28.851Z,4.51
2023-04-07T00:21:55.532Z,4.50
2023-04-07T00:24:33.864Z,4.49
2023-04-07T00:27:02.294Z,4.48
2023-04-07T00:29:29.178Z,4.44
2023-04-07T00:31:55.801Z,4.40
2023-04-07T00:34:22.759Z,4.39
2023-04-07T00:36:51.719Z,4.38
2023-04-07T00:39:18.908Z,4.38
2023-04-07T00:41:47.091Z,4.37
2023-04-07T00:44:14.008Z,4.33
2023-04-07T00:46:40.794Z,4.30
2023-04-07T00:49:10.703Z,4.26
2023-04-07T00:51:38.343Z,4.22
2023-04-07T00:54:05.952Z,4.18
2023-04-07T00:56:32.687Z,4.17
2023-04-07T00:58:59.307Z,4.14
2023-04-07T01:01:40.650Z,4.11
2023-04-07T01:04:24.630Z,4.06
2023-04-07T01:06:51.671Z,4.02
2023-04-07T01:09:27.337Z,3.99
2023-04-07T01:12:35.698Z,3.98
2023-04-07T01:15:11.039Z,3.95
2023-04-07T01:17:45.992Z,3.93
2023-04-07T01:20:14.072Z,3.91
2023-04-07T01:22:54.326Z,3.88
2023-04-07T01:25:35.589Z,3.86
2023-04-07T01:28:19.933Z,3.83
2023-04-07T01:30:46.931Z,3.82
2023-04-07T01:33:14.270Z,3.81
2023-04-07T01:35:41.494Z,3.79
2023-04-07T01:38:08.891Z,3.80
2023-04-07T01:40:35.715Z,3.80
2023-04-07T01:43:21.751Z,3.80
2023-04-07T01:45:49.963Z,3.81
2023-04-07T01:48:16.747Z,3.81
2023-04-07T01:50:43.891Z,3.80
2023-04-07T01:53:10.510Z,3.79
2023-04-07T01:55:37.341Z,3.78
2023-04-07T01:58:08.439Z,3.77
2023-04-07T02:00:37.981Z,3.77
2023-04-07T02:03:20.261Z,3.77
2023-04-07T02:05:48.089Z,3.77
2023-04-07T02:08:17.736Z,3.78
2023-04-07T02:10:47.444Z,3.77
2023-04-07T02:13:18.145Z,3.78
2023-04-07T02:15:45.244Z,3.77
2023-04-07T02:18:12.865Z,3.76
2023-04-07T02:20:39.884Z,3.75
2023-04-07T02:23:09.783Z,3.73
2023-04-07T02:25:39.665Z,3.74
2023-04-07T02:28:06.634Z,3.74
2023-04-07T02:30:34.282Z,3.74
2023-04-07T02:33:01.511Z,3.74
2023-04-07T02:35:28.379Z,3.73
2023-04-07T02:37:55.064Z,3.73
2023-04-07T02:40:22.121Z,3.74
2023-04-07T02:42:48.996Z,3.75
2023-04-07T02:45:15.873Z,3.76
2023-04-07T02:47:42.552Z,3.77
2023-04-07T02:50:09.730Z,3.77
2023-04-07T02:52:36.436Z,3.77
2023-04-07T02:55:08.125Z,3.77
2023-04-07T02:57:35.162Z,3.75
2023-04-07T03:00:04.065Z,3.73
2023-04-07T03:02:46.477Z,3.71
2023-04-07T03:05:13.543Z,3.68
2023-04-07T03:07:40.854Z,3.66
2023-04-07T03:10:08.959Z,3.63
2023-04-07T03:12:36.186Z,3.60
2023-04-07T03:15:03.118Z,3.55
2023-04-07T03:17:33.070Z,3.50
2023-04-07T03:20:00.527Z,3.46
2023-04-07T03:22:27.277Z,3.43
2023-04-07T03:24:55.139Z,3.40
2023-04-07T03:27:23.532Z,3.34
2023-04-07T03:29:50.818Z,3.29
2023-04-07T03:32:17.873Z,3.23
2023-04-07T03:34:44.726Z,3.20
2023-04-07T03:37:12.629Z,3.17
2023-04-07T03:39:40.480Z,3.13
2023-04-07T03:42:21.490Z,3.07
2023-04-07T03:44:48.877Z,3.01
2023-04-07T03:47:15.559Z,2.96
2023-04-07T03:49:42.249Z,2.90
2023-04-07T03:52:09.348Z,2.86
2023-04-07T03:54:36.682Z,2.81
2023-04-07T03:57:03.468Z,2.77
2023-04-07T03:59:32.325Z,2.74
2023-04-07T04:02:02.268Z,2.71
2023-04-07T04:04:29.351Z,2.69
2023-04-07T04:06:57.062Z,2.67
2023-04-07T04:09:34.544Z,2.67
2023-04-07T04:12:01.302Z,2.67
2023-04-07T04:14:29.720Z,2.69
2023-04-07T04:17:00.009Z,2.70
2023-04-07T04:19:37.535Z,2.73
2023-04-07T04:22:11.717Z,2.77
2023-04-07T04:24:44.136Z,2.81
2023-04-07T04:27:10.980Z,2.85
2023-04-07T04:29:38.145Z,2.88
2023-04-07T04:32:05.937Z,2.95
2023-04-07T04:34:36.514Z,3.00
2023-04-07T04:37:04.143Z,3.03
2023-04-07T04:39:31.251Z,3.08
2023-04-07T04:42:01.620Z,3.12
2023-04-07T04:44:33.137Z,3.17
2023-04-07T04:47:04.257Z,3.19
2023-04-07T04:49:32.510Z,3.22
2023-04-07T04:52:02.668Z,3.30
2023-04-07T04:54:32.488Z,3.39
2023-04-07T04:57:01.010Z,3.53
2023-04-07T04:59:29.614Z,3.72
2023-04-07T05:02:00.581Z,3.96
2023-04-07T05:04:27.866Z,4.25
2023-04-07T05:07:00.600Z,4.60
2023-04-07T05:09:29.207Z,5.01
2023-04-07T05:11:57.296Z,5.41
2023-04-07T05:14:25.135Z,5.85
2023-04-07T06:04:31.296Z,13.24
2023-04-07T06:07:25.689Z,14.27
2023-04-07T06:09:52.554Z,14.75
2023-04-07T06:12:19.465Z,15.14
2023-04-07T06:14:50.592Z,15.48
2023-04-07T06:17:17.230Z,15.99
2023-04-07T06:19:47.067Z,16.35
2023-04-07T06:22:14.222Z,16.39
2023-04-07T06:24:45.121Z,16.48
2023-04-07T06:27:12.243Z,16.49
2023-04-07T06:29:40.545Z,16.40
2023-04-07T06:32:07.711Z,16.76
2023-04-07T06:34:35.821Z,17.44
2023-04-07T06:37:03.301Z,18.14
2023-04-07T06:39:30.564Z,18.80
2023-04-07T06:41:57.528Z,19.39
2023-04-07T06:44:24.288Z,19.69
2023-04-07T06:46:52.865Z,19.95
2023-04-07T06:49:23.189Z,20.21
2023-04-07T06:51:50.101Z,20.18
2023-04-07T06:54:16.933Z,19.84
2023-04-07T06:56:59.325Z,19.70
2023-04-07T06:59:25.963Z,19.66
2023-04-07T07:01:52.850Z,19.64
2023-04-07T07:04:20.806Z,19.66
2023-04-07T07:06:48.285Z,19.52
2023-04-07T07:09:15.598Z,19.50
2023-04-07T07:11:45.504Z,19.80
2023-04-07T07:14:15.326Z,20.10
2023-04-07T07:16:42.325Z,20.31
2023-04-07T07:19:17.049Z,20.56
2023-04-07T07:21:43.895Z,20.87
2023-04-07T07:24:12.540Z,21.14
2023-04-07T07:26:42.273Z,21.44
2023-04-07T07:29:10.345Z,21.79
2023-04-07T07:31:42.430Z,22.17
2023-04-07T07:34:09.359Z,22.67
2023-04-07T07:36:38.797Z,23.11
2023-04-07T07:39:06.111Z,23.41
2023-04-07T07:41:32.948Z,23.67
2023-04-07T07:43:59.692Z,23.88
2023-04-07T07:46:26.946Z,24.08
2023-04-07T07:48:58.291Z,24.36
2023-04-07T07:51:27.587Z,24.67
2023-04-07T07:53:54.204Z,24.88
2023-04-07T07:56:21.925Z,25.01
2023-04-07T07:58:50.466Z,25.18
2023-04-07T08:01:17.269Z,25.08
2023-04-07T08:03:45.942Z,24.95
2023-04-07T08:06:13.403Z,24.89
2023-04-07T08:08:41.652Z,24.95
2023-04-07T08:17:31.747Z,25.06
2023-04-07T08:20:04.736Z,25.25
2023-04-07T08:22:32.500Z,25.59
2023-04-07T08:24:59.353Z,25.66
2023-04-07T08:27:30.718Z,25.45
2023-04-07T08:29:59.924Z,25.36
2023-04-07T08:32:40.697Z,25.49
2023-04-07T08:35:07.777Z,25.61
2023-04-07T08:37:35.909Z,25.74
2023-04-07T08:40:03.203Z,25.95
2023-04-07T08:42:32.670Z,26.19
2023-04-07T08:45:04.554Z,26.45
2023-04-07T08:47:32.944Z,26.65
2023-04-07T08:50:03.170Z,26.75
2023-04-07T08:52:52.540Z,26.68
2023-04-07T08:55:22.163Z,26.73
2023-04-07T08:57:50.630Z,26.84
2023-04-07T09:00:17.502Z,26.67
2023-04-07T09:02:47.332Z,26.70
2023-04-07T09:05:14.119Z,26.92
2023-04-07T09:07:42.594Z,27.10
2023-04-07T09:10:13.476Z,27.17
2023-04-07T09:12:49.555Z,27.31
2023-04-07T09:19:52.301Z,27.53
2023-04-07T09:22:39.383Z,27.52
2023-04-07T09:25:15.335Z,27.64
2023-04-07T09:27:56.615Z,27.56
2023-04-07T09:30:23.509Z,27.60
2023-04-07T09:37:26.001Z,27.48
2023-04-07T09:39:55.780Z,27.10
2023-04-07T09:42:22.662Z,26.37
2023-04-07T09:44:49.477Z,25.83
2023-04-07T09:47:17.616Z,25.71
2023-04-07T09:49:49.293Z,25.77
2023-04-07T09:52:17.011Z,25.95
2023-04-07T09:54:44.607Z,26.07
2023-04-07T09:57:13.054Z,26.02
2023-04-07T09:59:41.972Z,25.86
2023-04-07T10:02:09.158Z,25.87
2023-04-07T10:04:36.850Z,25.83
2023-04-07T10:12:00.138Z,25.88
2023-04-07T10:14:29.537Z,25.99
2023-04-07T10:17:02.146Z,26.08
2023-04-07T10:19:33.104Z,26.22
2023-04-07T10:22:00.104Z,26.43
2023-04-07T10:24:37.314Z,26.39
2023-04-07T10:27:07.200Z,26.20
2023-04-07T10:29:41.985Z,26.02
2023-04-07T10:32:09.373Z,25.57
2023-04-07T10:34:55.902Z,25.07
2023-04-07T10:37:23.688Z,24.68
2023-04-07T10:40:19.028Z,24.37
2023-04-07T10:47:19.928Z,24.03
2023-04-07T10:54:22.659Z,22.72
2023-04-07T10:57:01.998Z,21.87
2023-04-07T10:59:29.859Z,21.25
2023-04-07T11:02:22.807Z,20.79
2023-04-07T11:04:50.001Z,20.27
2023-04-07T11:07:20.594Z,19.82
2023-04-07T11:09:47.454Z,19.31
2023-04-07T11:12:23.928Z,18.74
2023-04-07T11:14:50.835Z,18.25
2023-04-07T11:17:23.698Z,17.94
2023-04-07T11:19:53.850Z,17.68
2023-04-07T11:24:50.789Z,17.15
2023-04-07T11:27:18.186Z,16.95
2023-04-07T11:29:45.116Z,16.99
2023-04-07T11:32:12.555Z,17.19
2023-04-07T11:34:39.899Z,17.42
2023-04-07T11:37:23.831Z,17.67
2023-04-07T11:39:58.107Z,17.82
2023-04-07T11:42:40.626Z,17.86
2023-04-07T11:45:17.552Z,17.92
2023-04-07T11:47:44.562Z,18.03
2023-04-07T11:50:14.432Z,18.17
2023-04-07T11:52:47.425Z,18.31
2023-04-07T11:55:22.302Z,18.41
2023-04-07T11:57:53.060Z,18.47
2023-04-07T12:00:20.484Z,18.52
2023-04-07T12:02:48.149Z,18.51
2023-04-07T12:05:15.011Z,18.47
2023-04-07T12:07:52.437Z,18.52
2023-04-07T12:10:23.441Z,18.57
2023-04-07T12:12:55.946Z,18.47
2023-04-07T12:15:23.601Z,18.18
2023-04-07T12:17:50.872Z,18.02
2023-04-07T12:20:26.724Z,17.94
2023-04-07T12:22:53.746Z,17.94
2023-04-07T12:25:21.002Z,17.99
2023-04-07T12:27:51.215Z,17.96
2023-04-07T12:30:18.295Z,17.91
2023-04-07T12:32:45.140Z,17.93
2023-04-07T12:35:11.803Z,18.01
2023-04-07T12:37:38.505Z,18.05
2023-04-07T12:44:41.853Z,17.99
2023-04-07T12:47:08.781Z,17.90
2023-04-07T12:49:35.809Z,17.78
2023-04-07T12:52:03.040Z,17.57
2023-04-07T12:54:30.673Z,17.28
2023-04-07T12:56:57.986Z,16.91
2023-04-07T12:59:25.480Z,16.49
2023-04-07T13:01:52.912Z,16.15
2023-04-07T13:04:19.975Z,15.89
2023-04-07T13:06:47.796Z,15.75
2023-04-07T13:09:14.784Z,15.61
2023-04-07T13:11:41.504Z,15.39
2023-04-07T13:14:08.308Z,15.09
2023-04-07T13:16:35.092Z,14.81
2023-04-07T13:19:01.889Z,14.63
2023-04-07T13:21:45.251Z,14.62
2023-04-07T13:24:12.679Z,14.74
2023-04-07T13:26:40.404Z,14.93
2023-04-07T13:29:07.166Z,15.09
2023-04-07T13:31:33.998Z,15.18
2023-04-07T13:38:33.991Z,15.03
2023-04-07T13:41:00.802Z,14.99
2023-04-07T13:48:11.220Z,14.95
2023-04-07T13:50:38.607Z,14.96
2023-04-07T13:53:06.121Z,15.00
2023-04-07T13:55:33.588Z,15.01
2023-04-07T13:58:00.700Z,15.02
2023-04-07T14:00:29.633Z,15.05
2023-04-07T14:03:08.101Z,15.09
2023-04-07T14:05:35.464Z,15.11
2023-04-07T14:08:02.439Z,15.11
2023-04-07T14:10:29.909Z,15.11
2023-04-07T14:12:56.972Z,15.11
2023-04-07T14:15:24.065Z,15.11
2023-04-07T14:17:51.162Z,15.10
2023-04-07T14:20:18.114Z,15.09
2023-04-07T14:22:45.325Z,15.13
2023-04-07T14:25:12.254Z,15.19
2023-04-07T14:27:40.538Z,15.24
2023-04-07T14:30:08.264Z,15.18
2023-04-07T14:32:36.019Z,15.15
2023-04-07T14:35:02.807Z,15.18
2023-04-07T14:37:30.197Z,15.20
2023-04-07T14:42:29.224Z,15.11
2023-04-07T14:49:45.353Z,14.69
2023-04-07T14:52:25.364Z,14.42
2023-04-07T14:54:54.637Z,14.26
2023-04-07T14:57:23.933Z,14.18
2023-04-07T14:59:53.646Z,14.10
2023-04-07T15:02:23.967Z,14.01
2023-04-07T15:04:54.069Z,13.95
2023-04-07T15:07:24.974Z,13.92
2023-04-07T15:09:54.968Z,13.91
2023-04-07T15:12:24.346Z,13.92
2023-04-07T15:14:55.018Z,13.88
2023-04-07T15:17:36.648Z,13.83
2023-04-07T15:20:13.469Z,13.77
2023-04-07T15:22:44.804Z,13.73
2023-04-07T15:25:15.155Z,13.73
2023-04-07T15:27:44.634Z,13.77
2023-04-07T15:30:15.012Z,13.80
2023-04-07T15:32:57.501Z,13.84
2023-04-07T15:35:27.997Z,13.88
2023-04-07T15:37:58.006Z,13.91
2023-04-07T15:40:28.136Z,13.94
2023-04-07T15:42:57.317Z,13.92
2023-04-07T15:45:27.019Z,13.90
2023-04-07T15:47:58.124Z,13.85
2023-04-07T15:50:29.554Z,13.78
2023-04-07T16:00:56.767Z,13.54
2023-04-07T16:03:27.348Z,13.42
2023-04-07T16:05:55.413Z,13.33
2023-04-07T16:08:22.146Z,13.23
2023-04-07T16:10:51.132Z,13.13
2023-04-07T16:13:18.025Z,13.01
2023-04-07T16:15:45.132Z,12.86
2023-04-07T16:18:11.914Z,12.70
2023-04-07T16:20:40.034Z,12.55
2023-04-07T16:23:10.171Z,12.42
2023-04-07T16:25:36.837Z,12.28
2023-04-07T16:28:03.514Z,12.14
2023-04-07T16:30:32.077Z,11.98
2023-04-07T16:33:16.345Z,11.82
2023-04-07T16:35:43.080Z,11.67
2023-04-07T16:38:09.843Z,11.54
2023-04-07T16:40:37.823Z,11.42
2023-04-07T16:43:05.013Z,11.31
2023-04-07T16:45:31.973Z,11.21
2023-04-07T16:47:59.173Z,11.11
2023-04-07T16:50:25.961Z,11.01
2023-04-07T16:52:54.279Z,10.92
2023-04-07T16:55:21.327Z,10.82
2023-04-07T16:57:48.889Z,10.73
2023-04-07T17:00:15.908Z,10.64
2023-04-07T17:02:44.364Z,10.57
2023-04-07T17:05:11.563Z,10.51
2023-04-07T17:07:38.591Z,10.44
2023-04-07T17:10:06.566Z,10.35
2023-04-07T17:12:35.178Z,10.27
2023-04-07T17:15:10.487Z,10.18
2023-04-07T17:17:38.994Z,10.10
2023-04-07T17:20:07.356Z,10.03
2023-04-07T17:22:34.289Z,9.98
2023-04-07T17:25:01.470Z,9.91
2023-04-07T17:27:28.496Z,9.87
2023-04-07T17:29:57.727Z,9.81
2023-04-07T17:32:25.698Z,9.76
2023-04-07T17:34:52.890Z,9.71
2023-04-07T17:37:25.827Z,9.66
2023-04-07T17:39:52.745Z,9.63
2023-04-07T17:42:19.671Z,9.60
2023-04-07T17:44:50.935Z,9.59
2023-04-07T17:47:17.929Z,9.57
2023-04-07T17:49:51.413Z,9.53
2023-04-07T17:52:18.109Z,9.51
2023-04-07T17:54:44.881Z,9.50
2023-04-07T17:57:13.640Z,9.47
2023-04-07T17:59:41.064Z,9.46
2023-04-07T18:02:09.903Z,9.43
2023-04-07T18:04:37.423Z,9.40
2023-04-07T18:07:04.408Z,9.37
2023-04-07T18:09:32.366Z,9.33
2023-04-07T18:12:02.034Z,9.29
2023-04-07T18:14:29.620Z,9.27
2023-04-07T18:16:56.463Z,9.25
2023-04-07T18:19:23.817Z,9.25
2023-04-07T18:21:53.012Z,9.25
2023-04-07T18:24:21.061Z,9.24
2023-04-07T18:26:48.068Z,9.25
2023-04-07T18:29:14.988Z,9.24
2023-04-07T18:31:42.239Z,9.23
2023-04-07T18:34:09.921Z,9.22
2023-04-07T18:36:42.574Z,9.20
2023-04-07T18:39:09.919Z,9.19
2023-04-07T18:41:36.999Z,9.17
2023-04-07T18:44:04.168Z,9.16
2023-04-07T18:46:31.146Z,9.15
2023-04-07T18:48:59.133Z,9.16
2023-04-07T18:51:27.243Z,9.16
2023-04-07T18:53:54.466Z,9.16
2023-04-07T18:56:21.655Z,9.17
2023-04-07T18:58:49.058Z,9.18
2023-04-07T19:01:16.690Z,9.20
2023-04-07T19:03:43.879Z,9.20
2023-04-07T19:06:14.504Z,9.21
2023-04-07T19:08:46.542Z,9.22
2023-04-07T19:11:13.511Z,9.21
2023-04-07T19:13:40.550Z,9.21
2023-04-07T19:16:07.718Z,9.21
2023-04-07T19:18:34.861Z,9.20
2023-04-07T19:21:02.538Z,9.20
2023-04-07T19:23:30.175Z,9.21
2023-04-07T19:25:57.047Z,9.22
2023-04-07T19:28:27.567Z,9.23
2023-04-07T19:30:55.480Z,9.24
2023-04-07T19:33:23.006Z,9.24
2023-04-07T19:35:49.839Z,9.25
2023-04-07T19:38:16.770Z,9.25
2023-04-07T19:40:43.597Z,9.25
2023-04-07T19:43:13.732Z,9.25
2023-04-07T19:45:40.590Z,9.25
2023-04-07T19:48:08.159Z,9.25
2023-04-07T19:50:40.914Z,9.25
2023-04-07T19:53:07.651Z,9.25
2023-04-07T19:55:35.427Z,9.26
2023-04-07T19:58:02.345Z,9.25
2023-04-07T20:00:34.456Z,9.25
2023-04-07T20:03:11.122Z,9.26
2023-04-07T20:05:38.336Z,9.27
2023-04-07T20:08:05.859Z,9.27
2023-04-07T20:10:32.842Z,9.27
2023-04-07T20:13:04.596Z,9.28
2023-04-07T20:15:33.216Z,9.27
2023-04-07T20:18:00.374Z,9.27
2023-04-07T20:20:27.311Z,9.28
2023-04-07T20:22:54.457Z,9.26
2023-04-07T20:25:21.822Z,9.26
2023-04-07T20:27:49.551Z,9.25
2023-04-07T20:30:16.705Z,9.24
2023-04-07T20:32:45.558Z,9.24
2023-04-07T20:35:13.996Z,9.24
2023-04-07T20:37:41.651Z,9.24
2023-04-07T20:40:11.766Z,9.24
2023-04-07T20:42:39.295Z,9.24
2023-04-07T20:45:07.266Z,9.24
2023-04-07T20:47:36.527Z,9.25
2023-04-07T20:50:05.184Z,9.26
2023-04-07T20:52:39.566Z,9.26
2023-04-07T20:55:07.441Z,9.26
2023-04-07T20:57:34.286Z,9.26
2023-04-07T21:00:03.063Z,9.25
2023-04-07T21:02:31.563Z,9.25
2023-04-07T21:04:58.510Z,9.24
2023-04-07T21:07:25.632Z,9.23
2023-04-07T21:09:52.785Z,9.24
2023-04-07T21:12:19.637Z,9.24
2023-04-07T21:14:48.620Z,9.24
2023-04-07T21:17:15.565Z,9.25
2023-04-07T21:19:42.819Z,9.24
2023-04-07T21:22:12.748Z,9.24
2023-04-07T21:24:40.292Z,9.23
2023-04-07T21:27:07.127Z,9.22
2023-04-07T21:29:34.216Z,9.22
2023-04-07T21:32:01.183Z,9.24
2023-04-07T21:34:27.856Z,9.25
2023-04-07T21:36:54.689Z,9.27
2023-04-07T21:39:21.609Z,9.30
2023-04-07T21:41:48.424Z,9.32
2023-04-07T21:44:19.450Z,9.35
2023-04-07T21:46:47.276Z,9.38
2023-04-07T21:49:15.054Z,9.40
2023-04-07T21:51:42.285Z,9.43
2023-04-07T21:54:09.556Z,9.46
2023-04-07T21:56:36.394Z,9.49
2023-04-07T21:59:03.763Z,9.49
2023-04-07T22:01:30.708Z,9.50
2023-04-07T22:03:57.806Z,9.49
2023-04-07T22:06:26.327Z,9.49
2023-04-07T22:09:01.169Z,9.49
2023-04-07T22:11:29.555Z,9.52
2023-04-07T22:13:56.481Z,9.54
2023-04-07T22:16:23.382Z,9.55
2023-04-07T22:18:50.564Z,9.53
2023-04-07T22:21:18.776Z,9.51
2023-04-07T22:23:45.799Z,9.50
2023-04-07T22:26:13.105Z,9.49
2023-04-07T22:28:40.805Z,9.49
2023-04-07T22:31:07.605Z,9.47
2023-04-07T22:33:37.371Z,9.46
2023-04-07T22:36:04.208Z,9.45
2023-04-07T22:38:35.066Z,9.45
2023-04-07T22:41:01.979Z,9.44
2023-04-07T22:43:28.922Z,9.43
2023-04-07T22:45:55.764Z,9.41
2023-04-07T22:48:22.607Z,9.42
2023-04-07T22:50:49.800Z,9.39
2023-04-07T22:53:16.801Z,9.37
2023-04-07T22:55:43.647Z,9.36
2023-04-07T22:58:10.489Z,9.36
2023-04-07T23:00:37.471Z,9.36
2023-04-07T23:03:07.295Z,9.36
2023-04-07T23:05:34.421Z,9.33
2023-04-07T23:08:01.231Z,9.30
2023-04-07T23:10:31.399Z,9.28
2023-04-07T23:13:00.044Z,9.25
2023-04-07T23:15:26.708Z,9.22
2023-04-07T23:17:56.862Z,9.19
2023-04-07T23:20:23.637Z,9.17
2023-04-07T23:22:50.431Z,9.14
2023-04-07T23:25:17.522Z,9.14
2023-04-07T23:27:44.399Z,9.13
2023-04-07T23:30:12.373Z,9.11
2023-04-07T23:32:40.327Z,9.09
2023-04-07T23:35:07.863Z,9.09
2023-04-07T23:37:35.216Z,9.10
2023-04-07T23:40:02.070Z,9.10
2023-04-07T23:42:29.102Z,9.10
2023-04-07T23:44:55.979Z,9.10
2023-04-07T23:47:23.331Z,9.10
2023-04-07T23:49:50.357Z,9.09
2023-04-07T23:52:20.873Z,9.07
2023-04-07T23:54:48.006Z,9.03
2023-04-07T23:57:15.488Z,8.98
2023-04-07T23:59:42.424Z,8.94
